sensor_id;sensor_type;location;lat;lon;timestamp;pressure;altitude;pressure_sealevel;temperature
24586;BMP280;12743;52.262;6.172;2023-03-20T00:00:48;100426.56;;;8.83
24586;BMP280;12743;52.262;6.172;2023-03-20T00:03:15;100421.97;;;8.71
24586;BMP280;12743;52.262;6.172;2023-03-20T00:05:42;100426.19;;;8.64
24586;BMP280;12743;52.262;6.172;2023-03-20T00:08:09;100414.63;;;8.65
24586;BMP280;12743;52.262;6.172;2023-03-20T00:10:39;100414.19;;;8.63
24586;BMP280;12743;52.262;6.172;2023-03-20T00:13:18;100429.72;;;8.59
24586;BMP280;12743;52.262;6.172;2023-03-20T00:15:48;100432.78;;;8.61
24586;BMP280;12743;52.262;6.172;2023-03-20T00:18:17;100432.84;;;8.53
24586;BMP280;12743;52.262;6.172;2023-03-20T00:20:45;100441.78;;;8.52
24586;BMP280;12743;52.262;6.172;2023-03-20T00:23:12;100444.03;;;8.62
24586;BMP280;12743;52.262;6.172;2023-03-20T00:25:40;100456.06;;;8.54
24586;BMP280;12743;52.262;6.172;2023-03-20T00:29:03;100456.06;;;8.54
24586;BMP280;12743;52.262;6.172;2023-03-20T00:31:26;100451.31;;;8.56
24586;BMP280;12743;52.262;6.172;2023-03-20T00:33:56;100432.25;;;8.47
24586;BMP280;12743;52.262;6.172;2023-03-20T00:36:23;100429.97;;;8.37
24586;BMP280;12743;52.262;6.172;2023-03-20T00:38:50;100455.63;;;8.52
24586;BMP280;12743;52.262;6.172;2023-03-20T00:41:23;100428.78;;;8.26
24586;BMP280;12743;52.262;6.172;2023-03-20T00:43:57;100463.31;;;8.49
24586;BMP280;12743;52.262;6.172;2023-03-20T00:46:25;100468.88;;;8.47
24586;BMP280;12743;52.262;6.172;2023-03-20T00:48:52;100460.56;;;8.54
24586;BMP280;12743;52.262;6.172;2023-03-20T00:51:18;100464.59;;;8.43
24586;BMP280;12743;52.262;6.172;2023-03-20T00:53:46;100453.25;;;8.30
24586;BMP280;12743;52.262;6.172;2023-03-20T00:56:39;100473.66;;;8.45
24586;BMP280;12743;52.262;6.172;2023-03-20T00:59:14;100469.06;;;8.42
24586;BMP280;12743;52.262;6.172;2023-03-20T01:01:42;100435.56;;;8.19
24586;BMP280;12743;52.262;6.172;2023-03-20T01:04:11;100450.28;;;8.32
24586;BMP280;12743;52.262;6.172;2023-03-20T01:06:39;100462.03;;;8.34
24586;BMP280;12743;52.262;6.172;2023-03-20T01:09:05;100469.97;;;8.38
24586;BMP280;12743;52.262;6.172;2023-03-20T01:11:32;100463.53;;;8.35
24586;BMP280;12743;52.262;6.172;2023-03-20T01:13:59;100468.91;;;8.39
24586;BMP280;12743;52.262;6.172;2023-03-20T01:16:26;100431.91;;;8.11
24586;BMP280;12743;52.262;6.172;2023-03-20T01:18:52;100486.47;;;8.30
24586;BMP280;12743;52.262;6.172;2023-03-20T01:21:19;100493.25;;;8.31
24586;BMP280;12743;52.262;6.172;2023-03-20T01:23:48;100496.44;;;8.45
24586;BMP280;12743;52.262;6.172;2023-03-20T01:26:26;100529.41;;;8.37
24586;BMP280;12743;52.262;6.172;2023-03-20T01:28:54;100524.34;;;8.32
24586;BMP280;12743;52.262;6.172;2023-03-20T01:31:21;100525.09;;;8.33
24586;BMP280;12743;52.262;6.172;2023-03-20T01:33:48;100529.88;;;8.31
24586;BMP280;12743;52.262;6.172;2023-03-20T01:36:17;100525.56;;;8.35
24586;BMP280;12743;52.262;6.172;2023-03-20T01:38:47;100511.72;;;8.34
24586;BMP280;12743;52.262;6.172;2023-03-20T01:41:17;100491.38;;;8.31
24586;BMP280;12743;52.262;6.172;2023-03-20T01:43:44;100508.16;;;8.39
24586;BMP280;12743;52.262;6.172;2023-03-20T01:51:21;100500.34;;;8.30
24586;BMP280;12743;52.262;6.172;2023-03-20T01:53:55;100519.09;;;8.32
24586;BMP280;12743;52.262;6.172;2023-03-20T01:56:23;100510.19;;;8.33
24586;BMP280;12743;52.262;6.172;2023-03-20T01:59:16;100501.72;;;8.36
24586;BMP280;12743;52.262;6.172;2023-03-20T02:01:46;100501.41;;;8.29
24586;BMP280;12743;52.262;6.172;2023-03-20T02:04:16;100491.25;;;8.28
24586;BMP280;12743;52.262;6.172;2023-03-20T02:06:50;100508.06;;;8.27
24586;BMP280;12743;52.262;6.172;2023-03-20T02:09:27;100515.91;;;8.27
24586;BMP280;12743;52.262;6.172;2023-03-20T02:11:54;100515.13;;;8.26
24586;BMP280;12743;52.262;6.172;2023-03-20T02:14:23;100524.81;;;8.26
24586;BMP280;12743;52.262;6.172;2023-03-20T02:16:58;100520.03;;;8.28
24586;BMP280;12743;52.262;6.172;2023-03-20T02:31:41;100484.78;;;8.25
24586;BMP280;12743;52.262;6.172;2023-03-20T02:37:39;100465.28;;;8.14
24586;BMP280;12743;52.262;6.172;2023-03-20T02:45:54;100456.97;;;8.21
24586;BMP280;12743;52.262;6.172;2023-03-20T02:48:46;100467.44;;;8.12
24586;BMP280;12743;52.262;6.172;2023-03-20T02:51:35;100449.47;;;7.93
24586;BMP280;12743;52.262;6.172;2023-03-20T03:00:27;100517.28;;;8.07
24586;BMP280;12743;52.262;6.172;2023-03-20T03:03:16;100521.13;;;8.09
24586;BMP280;12743;52.262;6.172;2023-03-20T03:05:48;100509.31;;;8.03
24586;BMP280;12743;52.262;6.172;2023-03-20T03:08:17;100515.44;;;8.07
24586;BMP280;12743;52.262;6.172;2023-03-20T03:10:52;100515.44;;;8.07
24586;BMP280;12743;52.262;6.172;2023-03-20T03:13:26;100518.69;;;8.04
24586;BMP280;12743;52.262;6.172;2023-03-20T03:15:59;100526.06;;;8.02
24586;BMP280;12743;52.262;6.172;2023-03-20T03:18:29;100524.50;;;8.01
24586;BMP280;12743;52.262;6.172;2023-03-20T03:20:59;100521.91;;;8.01
24586;BMP280;12743;52.262;6.172;2023-03-20T03:23:39;100516.66;;;8.01
24586;BMP280;12743;52.262;6.172;2023-03-20T03:26:13;100505.16;;;7.94
24586;BMP280;12743;52.262;6.172;2023-03-20T03:28:47;100490.22;;;7.86
24586;BMP280;12743;52.262;6.172;2023-03-20T03:31:16;100496.06;;;8.00
24586;BMP280;12743;52.262;6.172;2023-03-20T03:33:45;100498.34;;;8.01
24586;BMP280;12743;52.262;6.172;2023-03-20T03:41:51;100484.97;;;7.86
24586;BMP280;12743;52.262;6.172;2023-03-20T03:44:28;100475.78;;;7.80
24586;BMP280;12743;52.262;6.172;2023-03-20T03:47:00;100476.53;;;7.80
24586;BMP280;12743;52.262;6.172;2023-03-20T03:49:31;100477.00;;;7.82
24586;BMP280;12743;52.262;6.172;2023-03-20T03:52:02;100464.22;;;7.89
24586;BMP280;12743;52.262;6.172;2023-03-20T03:57:39;100463.59;;;7.75
24586;BMP280;12743;52.262;6.172;2023-03-20T04:00:13;100452.72;;;7.73
24586;BMP280;12743;52.262;6.172;2023-03-20T04:02:44;100449.16;;;7.78
24586;BMP280;12743;52.262;6.172;2023-03-20T04:05:12;100425.31;;;7.45
24586;BMP280;12743;52.262;6.172;2023-03-20T04:07:44;100472.69;;;7.69
24586;BMP280;12743;52.262;6.172;2023-03-20T04:10:12;100471.63;;;7.70
24586;BMP280;12743;52.262;6.172;2023-03-20T04:12:41;100466.06;;;7.72
24586;BMP280;12743;52.262;6.172;2023-03-20T04:15:10;100475.75;;;7.63
24586;BMP280;12743;52.262;6.172;2023-03-20T04:17:37;100479.75;;;7.60
24586;BMP280;12743;52.262;6.172;2023-03-20T04:20:06;100486.53;;;7.70
24586;BMP280;12743;52.262;6.172;2023-03-20T04:22:33;100465.59;;;7.44
24586;BMP280;12743;52.262;6.172;2023-03-20T04:25:18;100488.06;;;7.62
24586;BMP280;12743;52.262;6.172;2023-03-20T04:27:45;100494.81;;;7.63
24586;BMP280;12743;52.262;6.172;2023-03-20T04:30:21;100503.28;;;7.60
24586;BMP280;12743;52.262;6.172;2023-03-20T04:33:06;100498.78;;;7.52
24586;BMP280;12743;52.262;6.172;2023-03-20T04:35:46;100499.28;;;7.54
24586;BMP280;12743;52.262;6.172;2023-03-20T04:38:15;100505.28;;;7.55
24586;BMP280;12743;52.262;6.172;2023-03-20T04:40:43;100498.50;;;7.54
24586;BMP280;12743;52.262;6.172;2023-03-20T04:43:10;100498.97;;;7.47
24586;BMP280;12743;52.262;6.172;2023-03-20T04:45:37;100487.44;;;7.48
24586;BMP280;12743;52.262;6.172;2023-03-20T04:48:07;100490.94;;;7.52
24586;BMP280;12743;52.262;6.172;2023-03-20T04:50:34;100490.78;;;7.40
24586;BMP280;12743;52.262;6.172;2023-03-20T04:53:01;100507.41;;;7.44
24586;BMP280;12743;52.262;6.172;2023-03-20T04:55:28;100498.00;;;7.43
24586;BMP280;12743;52.262;6.172;2023-03-20T04:57:55;100444.53;;;7.15
24586;BMP280;12743;52.262;6.172;2023-03-20T05:00:23;100490.03;;;7.39
24586;BMP280;12743;52.262;6.172;2023-03-20T05:02:49;100492.66;;;7.39
24586;BMP280;12743;52.262;6.172;2023-03-20T05:05:16;100489.88;;;7.36
24586;BMP280;12743;52.262;6.172;2023-03-20T05:07:43;100470.03;;;7.26
24586;BMP280;12743;52.262;6.172;2023-03-20T05:10:15;100484.78;;;7.31
24586;BMP280;12743;52.262;6.172;2023-03-20T05:12:49;100468.63;;;7.29
24586;BMP280;12743;52.262;6.172;2023-03-20T05:15:22;100472.31;;;7.28
24586;BMP280;12743;52.262;6.172;2023-03-20T05:17:48;100469.13;;;7.31
24586;BMP280;12743;52.262;6.172;2023-03-20T05:20:35;100458.94;;;7.21
24586;BMP280;12743;52.262;6.172;2023-03-20T05:23:25;100468.78;;;7.24
24586;BMP280;12743;52.262;6.172;2023-03-20T05:26:18;100464.63;;;7.23
24586;BMP280;12743;52.262;6.172;2023-03-20T05:29:03;100462.44;;;7.16
24586;BMP280;12743;52.262;6.172;2023-03-20T05:31:32;100468.78;;;7.24
24586;BMP280;12743;52.262;6.172;2023-03-20T05:34:13;100433.09;;;7.02
24586;BMP280;12743;52.262;6.172;2023-03-20T05:37:05;100456.97;;;7.26
24586;BMP280;12743;52.262;6.172;2023-03-20T05:39:47;100472.91;;;7.16
24586;BMP280;12743;52.262;6.172;2023-03-20T05:42:31;100478.75;;;7.22
24586;BMP280;12743;52.262;6.172;2023-03-20T05:45:17;100473.69;;;7.25
24586;BMP280;12743;52.262;6.172;2023-03-20T05:47:44;100461.25;;;7.14
24586;BMP280;12743;52.262;6.172;2023-03-20T05:50:33;100473.25;;;7.23
24586;BMP280;12743;52.262;6.172;2023-03-20T05:53:12;100484.16;;;7.25
24586;BMP280;12743;52.262;6.172;2023-03-20T05:55:53;100478.59;;;7.18
24586;BMP280;12743;52.262;6.172;2023-03-20T05:58:38;100472.56;;;7.09
24586;BMP280;12743;52.262;6.172;2023-03-20T06:01:32;100479.22;;;7.15
24586;BMP280;12743;52.262;6.172;2023-03-20T06:04:19;100497.63;;;7.19
24586;BMP280;12743;52.262;6.172;2023-03-20T06:07:01;100481.69;;;7.20
24586;BMP280;12743;52.262;6.172;2023-03-20T06:09:28;100493.50;;;7.18
24586;BMP280;12743;52.262;6.172;2023-03-20T06:11:56;100490.44;;;7.16
24586;BMP280;12743;52.262;6.172;2023-03-20T06:14:22;100501.50;;;7.21
24586;BMP280;12743;52.262;6.172;2023-03-20T06:16:55;100492.41;;;7.19
24586;BMP280;12743;52.262;6.172;2023-03-20T06:19:23;100494.56;;;7.17
24586;BMP280;12743;52.262;6.172;2023-03-20T06:21:50;100459.81;;;6.99
24586;BMP280;12743;52.262;6.172;2023-03-20T06:24:19;100501.19;;;7.14
24586;BMP280;12743;52.262;6.172;2023-03-20T06:26:46;100497.94;;;7.17
24586;BMP280;12743;52.262;6.172;2023-03-20T06:29:12;100503.03;;;7.22
24586;BMP280;12743;52.262;6.172;2023-03-20T06:31:39;100476.47;;;7.12
24586;BMP280;12743;52.262;6.172;2023-03-20T06:34:11;100512.28;;;7.28
24586;BMP280;12743;52.262;6.172;2023-03-20T06:36:42;100490.44;;;7.16
24586;BMP280;12743;52.262;6.172;2023-03-20T06:39:16;100496.47;;;7.25
24586;BMP280;12743;52.262;6.172;2023-03-20T06:41:43;100509.53;;;7.25
24586;BMP280;12743;52.262;6.172;2023-03-20T06:44:10;100517.78;;;7.18
24586;BMP280;12743;52.262;6.172;2023-03-20T06:47:00;100510.88;;;7.22
24586;BMP280;12743;52.262;6.172;2023-03-20T06:49:26;100519.31;;;7.19
24586;BMP280;12743;52.262;6.172;2023-03-20T06:51:54;100518.72;;;7.22
24586;BMP280;12743;52.262;6.172;2023-03-20T06:54:23;100493.78;;;7.16
24586;BMP280;12743;52.262;6.172;2023-03-20T06:56:50;100509.53;;;7.33
24586;BMP280;12743;52.262;6.172;2023-03-20T06:59:19;100522.31;;;7.35
24586;BMP280;12743;52.262;6.172;2023-03-20T07:01:46;100522.72;;;7.28
24586;BMP280;12743;52.262;6.172;2023-03-20T07:04:13;100481.28;;;6.96
24586;BMP280;12743;52.262;6.172;2023-03-20T07:06:46;100535.94;;;7.32
24586;BMP280;12743;52.262;6.172;2023-03-20T07:09:13;100539.50;;;7.36
24586;BMP280;12743;52.262;6.172;2023-03-20T07:11:39;100543.63;;;7.28
24586;BMP280;12743;52.262;6.172;2023-03-20T07:14:07;100530.09;;;7.26
24586;BMP280;12743;52.262;6.172;2023-03-20T07:16:47;100556.09;;;7.31
24586;BMP280;12743;52.262;6.172;2023-03-20T07:19:14;100557.66;;;7.41
24586;BMP280;12743;52.262;6.172;2023-03-20T07:21:43;100561.94;;;7.37
24586;BMP280;12743;52.262;6.172;2023-03-20T07:24:12;100551.47;;;7.28
24586;BMP280;12743;52.262;6.172;2023-03-20T07:26:39;100577.63;;;7.45
24586;BMP280;12743;52.262;6.172;2023-03-20T07:29:06;100580.25;;;7.45
24586;BMP280;12743;52.262;6.172;2023-03-20T07:31:34;100575.16;;;7.40
24586;BMP280;12743;52.262;6.172;2023-03-20T07:34:14;100585.19;;;7.56
24586;BMP280;12743;52.262;6.172;2023-03-20T07:36:41;100594.13;;;7.55
24586;BMP280;12743;52.262;6.172;2023-03-20T07:39:12;100594.44;;;7.62
24586;BMP280;12743;52.262;6.172;2023-03-20T07:41:44;100594.88;;;7.47
24586;BMP280;12743;52.262;6.172;2023-03-20T07:44:23;100550.22;;;7.26
24586;BMP280;12743;52.262;6.172;2023-03-20T07:46:51;100582.53;;;7.38
24586;BMP280;12743;52.262;6.172;2023-03-20T07:49:21;100593.03;;;7.47
24586;BMP280;12743;52.262;6.172;2023-03-20T07:51:48;100598.16;;;7.61
24586;BMP280;12743;52.262;6.172;2023-03-20T07:54:15;100603.66;;;7.59
24586;BMP280;12743;52.262;6.172;2023-03-20T07:56:42;100623.03;;;7.58
24586;BMP280;12743;52.262;6.172;2023-03-20T07:59:09;100599.22;;;7.60
24586;BMP280;12743;52.262;6.172;2023-03-20T08:01:36;100609.66;;;7.60
24586;BMP280;12743;52.262;6.172;2023-03-20T08:04:02;100612.13;;;7.65
24586;BMP280;12743;52.262;6.172;2023-03-20T08:06:29;100609.66;;;7.60
24586;BMP280;12743;52.262;6.172;2023-03-20T08:08:56;100629.34;;;7.66
24586;BMP280;12743;52.262;6.172;2023-03-20T08:11:23;100619.09;;;7.78
24586;BMP280;12743;52.262;6.172;2023-03-20T08:13:49;100550.09;;;7.31
24586;BMP280;12743;52.262;6.172;2023-03-20T08:16:16;100628.75;;;7.69
24586;BMP280;12743;52.262;6.172;2023-03-20T08:18:43;100634.47;;;7.79
24586;BMP280;12743;52.262;6.172;2023-03-20T08:21:09;100621.09;;;7.81
24586;BMP280;12743;52.262;6.172;2023-03-20T08:23:36;100610.31;;;7.82
24586;BMP280;12743;52.262;6.172;2023-03-20T08:26:02;100615.59;;;7.91
24586;BMP280;12743;52.262;6.172;2023-03-20T08:28:29;100606.78;;;7.87
24586;BMP280;12743;52.262;6.172;2023-03-20T08:31:13;100615.59;;;7.91
24586;BMP280;12743;52.262;6.172;2023-03-20T08:33:39;100607.13;;;7.94
24586;BMP280;12743;52.262;6.172;2023-03-20T08:36:06;100607.75;;;7.91
24586;BMP280;12743;52.262;6.172;2023-03-20T08:38:33;100596.69;;;7.94
24586;BMP280;12743;52.262;6.172;2023-03-20T08:40:59;100583.13;;;7.83
24586;BMP280;12743;52.262;6.172;2023-03-20T08:43:26;100577.44;;;7.90
24586;BMP280;12743;52.262;6.172;2023-03-20T08:45:53;100570.97;;;7.87
24586;BMP280;12743;52.262;6.172;2023-03-20T08:48:19;100559.25;;;7.85
24586;BMP280;12743;52.262;6.172;2023-03-20T08:50:46;100552.06;;;7.90
24586;BMP280;12743;52.262;6.172;2023-03-20T08:53:12;100535.72;;;7.85
24586;BMP280;12743;52.262;6.172;2023-03-20T08:55:39;100550.66;;;7.84
24586;BMP280;12743;52.262;6.172;2023-03-20T08:58:06;100542.81;;;7.93
24586;BMP280;12743;52.262;6.172;2023-03-20T09:00:33;100528.53;;;8.07
24586;BMP280;12743;52.262;6.172;2023-03-20T09:02:59;100523.75;;;8.01
24586;BMP280;12743;52.262;6.172;2023-03-20T09:05:26;100532.97;;;7.98
24586;BMP280;12743;52.262;6.172;2023-03-20T09:07:53;100531.00;;;8.04
24586;BMP280;12743;52.262;6.172;2023-03-20T09:10:19;100525.28;;;8.02
24586;BMP280;12743;52.262;6.172;2023-03-20T09:12:46;100542.06;;;7.92
24586;BMP280;12743;52.262;6.172;2023-03-20T09:15:12;100550.50;;;7.98
24586;BMP280;12743;52.262;6.172;2023-03-20T09:17:39;100541.44;;;8.13
24586;BMP280;12743;52.262;6.172;2023-03-20T09:20:06;100518.22;;;8.11
24586;BMP280;12743;52.262;6.172;2023-03-20T09:22:34;100525.59;;;8.26
24586;BMP280;12743;52.262;6.172;2023-03-20T09:25:00;100549.28;;;8.13
24586;BMP280;12743;52.262;6.172;2023-03-20T09:27:27;100556.34;;;8.12
24586;BMP280;12743;52.262;6.172;2023-03-20T09:29:53;100564.22;;;8.21
24586;BMP280;12743;52.262;6.172;2023-03-20T09:32:20;100547.59;;;8.34
24586;BMP280;12743;52.262;6.172;2023-03-20T09:34:47;100578.06;;;8.13
24586;BMP280;12743;52.262;6.172;2023-03-20T09:37:13;100585.44;;;8.28
24586;BMP280;12743;52.262;6.172;2023-03-20T09:39:40;100595.16;;;8.36
24586;BMP280;12743;52.262;6.172;2023-03-20T09:45:12;100612.06;;;8.64
24586;BMP280;12743;52.262;6.172;2023-03-20T09:47:48;100620.34;;;8.57
24586;BMP280;12743;52.262;6.172;2023-03-20T09:50:38;100611.84;;;8.77
24586;BMP280;12743;52.262;6.172;2023-03-20T09:55:53;100624.94;;;8.86
24586;BMP280;12743;52.262;6.172;2023-03-20T09:58:23;100606.22;;;8.50
24586;BMP280;12743;52.262;6.172;2023-03-20T10:00:54;100689.16;;;8.92
24586;BMP280;12743;52.262;6.172;2023-03-20T10:05:58;100721.38;;;8.93
24586;BMP280;12743;52.262;6.172;2023-03-20T10:08:29;100732.44;;;8.98
24586;BMP280;12743;52.262;6.172;2023-03-20T10:13:41;100777.91;;;8.94
24586;BMP280;12743;52.262;6.172;2023-03-20T10:19:26;100788.53;;;9.06
24586;BMP280;12743;52.262;6.172;2023-03-20T10:24:41;100821.34;;;9.20
24586;BMP280;12743;52.262;6.172;2023-03-20T10:27:28;100862.19;;;8.96
24586;BMP280;12743;52.262;6.172;2023-03-20T10:33:19;100810.13;;;8.86
24586;BMP280;12743;52.262;6.172;2023-03-20T10:39:00;100839.22;;;8.76
24586;BMP280;12743;52.262;6.172;2023-03-20T10:41:33;100770.19;;;8.71
24586;BMP280;12743;52.262;6.172;2023-03-20T10:44:01;100759.72;;;8.71
24586;BMP280;12743;52.262;6.172;2023-03-20T10:46:33;100707.84;;;8.73
24586;BMP280;12743;52.262;6.172;2023-03-20T10:49:09;100685.94;;;8.52
24586;BMP280;12743;52.262;6.172;2023-03-20T10:51:48;100668.09;;;8.46
24586;BMP280;12743;52.262;6.172;2023-03-20T10:57:23;100554.50;;;8.21
24586;BMP280;12743;52.262;6.172;2023-03-20T10:59:51;100621.47;;;8.56
24586;BMP280;12743;52.262;6.172;2023-03-20T11:02:20;100615.00;;;8.54
24586;BMP280;12743;52.262;6.172;2023-03-20T11:04:47;100581.91;;;8.32
24586;BMP280;12743;52.262;6.172;2023-03-20T11:07:46;100603.09;;;8.73
24586;BMP280;12743;52.262;6.172;2023-03-20T11:10:14;100609.56;;;8.59
24586;BMP280;12743;52.262;6.172;2023-03-20T11:12:47;100594.75;;;8.71
24586;BMP280;12743;52.262;6.172;2023-03-20T11:17:58;100637.28;;;8.68
24586;BMP280;12743;52.262;6.172;2023-03-20T11:20:26;100640.66;;;8.69
24586;BMP280;12743;52.262;6.172;2023-03-20T11:22:58;100630.16;;;8.77
24586;BMP280;12743;52.262;6.172;2023-03-20T11:25:31;100628.47;;;8.90
24586;BMP280;12743;52.262;6.172;2023-03-20T11:30:45;100657.72;;;8.92
24586;BMP280;12743;52.262;6.172;2023-03-20T11:33:29;100667.75;;;8.90
24586;BMP280;12743;52.262;6.172;2023-03-20T11:35:58;100638.13;;;8.98
24586;BMP280;12743;52.262;6.172;2023-03-20T11:38:24;100666.03;;;9.03
24586;BMP280;12743;52.262;6.172;2023-03-20T11:40:51;100626.09;;;9.06
24586;BMP280;12743;52.262;6.172;2023-03-20T11:43:21;100622.63;;;9.31
24586;BMP280;12743;52.262;6.172;2023-03-20T11:45:58;100680.84;;;8.90
24586;BMP280;12743;52.262;6.172;2023-03-20T11:48:36;100660.69;;;8.82
24586;BMP280;12743;52.262;6.172;2023-03-20T11:51:04;100641.25;;;8.92
24586;BMP280;12743;52.262;6.172;2023-03-20T11:53:33;100614.09;;;9.13
24586;BMP280;12743;52.262;6.172;2023-03-20T11:56:05;100597.88;;;9.11
24586;BMP280;12743;52.262;6.172;2023-03-20T11:58:36;100604.53;;;9.09
24586;BMP280;12743;52.262;6.172;2023-03-20T12:01:06;100603.44;;;9.10
24586;BMP280;12743;52.262;6.172;2023-03-20T12:03:49;100603.59;;;9.13
24586;BMP280;12743;52.262;6.172;2023-03-20T12:06:24;100606.69;;;9.07
24586;BMP280;12743;52.262;6.172;2023-03-20T12:08:59;100616.31;;;8.86
24586;BMP280;12743;52.262;6.172;2023-03-20T12:11:56;100609.97;;;8.95
24586;BMP280;12743;52.262;6.172;2023-03-20T12:14:32;100620.88;;;8.97
24586;BMP280;12743;52.262;6.172;2023-03-20T12:19:44;100579.78;;;8.89
24586;BMP280;12743;52.262;6.172;2023-03-20T12:22:24;100645.22;;;8.98
24586;BMP280;12743;52.262;6.172;2023-03-20T12:25:11;100631.25;;;8.94
24586;BMP280;12743;52.262;6.172;2023-03-20T12:27:44;100584.56;;;8.79
24586;BMP280;12743;52.262;6.172;2023-03-20T12:30:19;100613.69;;;8.86
24586;BMP280;12743;52.262;6.172;2023-03-20T12:32:55;100589.41;;;8.77
24586;BMP280;12743;52.262;6.172;2023-03-20T12:35:32;100575.09;;;8.65
24586;BMP280;12743;52.262;6.172;2023-03-20T12:38:00;100556.63;;;8.53
24586;BMP280;12743;52.262;6.172;2023-03-20T12:40:35;100535.38;;;8.63
24586;BMP280;12743;52.262;6.172;2023-03-20T12:43:17;100498.66;;;8.72
24586;BMP280;12743;52.262;6.172;2023-03-20T12:54:29;100429.88;;;8.63
24586;BMP280;12743;52.262;6.172;2023-03-20T12:57:17;100430.66;;;8.63
24586;BMP280;12743;52.262;6.172;2023-03-20T13:00:02;100430.22;;;8.53
24586;BMP280;12743;52.262;6.172;2023-03-20T13:05:06;100423.19;;;8.45
24586;BMP280;12743;52.262;6.172;2023-03-20T13:08:28;100430.72;;;8.38
24586;BMP280;12743;52.262;6.172;2023-03-20T13:11:04;100427.91;;;8.51
24586;BMP280;12743;52.262;6.172;2023-03-20T13:13:45;100445.56;;;8.34
24586;BMP280;12743;52.262;6.172;2023-03-20T13:16:27;100434.09;;;8.38
24586;BMP280;12743;52.262;6.172;2023-03-20T13:19:13;100374.81;;;8.13
24586;BMP280;12743;52.262;6.172;2023-03-20T13:24:32;100407.94;;;8.38
24586;BMP280;12743;52.262;6.172;2023-03-20T13:29:43;100383.31;;;8.39
24586;BMP280;12743;52.262;6.172;2023-03-20T13:32:49;100382.13;;;8.37
24586;BMP280;12743;52.262;6.172;2023-03-20T13:35:41;100381.06;;;8.29
24586;BMP280;12743;52.262;6.172;2023-03-20T13:38:17;100362.28;;;8.36
24586;BMP280;12743;52.262;6.172;2023-03-20T13:40:45;100356.13;;;8.32
24586;BMP280;12743;52.262;6.172;2023-03-20T13:45:43;100358.31;;;8.21
24586;BMP280;12743;52.262;6.172;2023-03-20T13:48:32;100342.53;;;8.38
24586;BMP280;12743;52.262;6.172;2023-03-20T13:51:07;100339.06;;;8.26
24586;BMP280;12743;52.262;6.172;2023-03-20T14:04:50;100301.72;;;8.17
24586;BMP280;12743;52.262;6.172;2023-03-20T14:07:37;100314.47;;;8.27
24586;BMP280;12743;52.262;6.172;2023-03-20T14:12:54;100301.44;;;8.39
24586;BMP280;12743;52.262;6.172;2023-03-20T14:15:26;100286.75;;;8.26
24586;BMP280;12743;52.262;6.172;2023-03-20T14:17:53;100304.88;;;8.31
24586;BMP280;12743;52.262;6.172;2023-03-20T14:20:37;100293.28;;;8.40
24586;BMP280;12743;52.262;6.172;2023-03-20T14:23:05;100286.97;;;8.41
24586;BMP280;12743;52.262;6.172;2023-03-20T14:25:35;100278.25;;;8.29
24586;BMP280;12743;52.262;6.172;2023-03-20T14:30:45;100294.25;;;8.36
24586;BMP280;12743;52.262;6.172;2023-03-20T14:35:50;100270.88;;;8.31
24586;BMP280;12743;52.262;6.172;2023-03-20T14:38:45;100272.66;;;8.39
24586;BMP280;12743;52.262;6.172;2023-03-20T14:41:41;100285.75;;;8.39
24586;BMP280;12743;52.262;6.172;2023-03-20T14:49:58;100267.56;;;8.42
24586;BMP280;12743;52.262;6.172;2023-03-20T14:57:45;100276.03;;;8.39
24586;BMP280;12743;52.262;6.172;2023-03-20T15:00:24;100273.84;;;8.50
24586;BMP280;12743;52.262;6.172;2023-03-20T15:02:53;100275.22;;;8.47
24586;BMP280;12743;52.262;6.172;2023-03-20T15:05:25;100272.19;;;8.45
24586;BMP280;12743;52.262;6.172;2023-03-20T15:08:03;100269.41;;;8.42
24586;BMP280;12743;52.262;6.172;2023-03-20T15:10:34;100245.47;;;8.31
24586;BMP280;12743;52.262;6.172;2023-03-20T15:13:06;100257.53;;;8.44
24586;BMP280;12743;52.262;6.172;2023-03-20T15:15:33;100262.34;;;8.42
24586;BMP280;12743;52.262;6.172;2023-03-20T15:18:19;100261.03;;;8.48
24586;BMP280;12743;52.262;6.172;2023-03-20T15:20:47;100261.94;;;8.32
24586;BMP280;12743;52.262;6.172;2023-03-20T15:23:14;100273.69;;;8.26
24586;BMP280;12743;52.262;6.172;2023-03-20T15:25:43;100266.09;;;8.33
24586;BMP280;12743;52.262;6.172;2023-03-20T15:30:45;100267.69;;;8.17
24586;BMP280;12743;52.262;6.172;2023-03-20T15:33:35;100263.41;;;8.21
24586;BMP280;12743;52.262;6.172;2023-03-20T15:36:16;100248.50;;;8.13
24586;BMP280;12743;52.262;6.172;2023-03-20T15:38:44;100256.75;;;8.23
24586;BMP280;12743;52.262;6.172;2023-03-20T15:43:50;100243.47;;;8.07
24586;BMP280;12743;52.262;6.172;2023-03-20T15:46:17;100229.34;;;8.00
24586;BMP280;12743;52.262;6.172;2023-03-20T15:48:48;100249.28;;;8.13
24586;BMP280;12743;52.262;6.172;2023-03-20T15:51:16;100246.22;;;8.11
24586;BMP280;12743;52.262;6.172;2023-03-20T15:53:45;100247.47;;;8.05
24586;BMP280;12743;52.262;6.172;2023-03-20T15:56:14;100249.53;;;8.20
24586;BMP280;12743;52.262;6.172;2023-03-20T15:58:46;100223.50;;;8.03
24586;BMP280;12743;52.262;6.172;2023-03-20T16:01:19;100244.84;;;8.05
24586;BMP280;12743;52.262;6.172;2023-03-20T16:03:47;100198.22;;;7.78
24586;BMP280;12743;52.262;6.172;2023-03-20T16:06:18;100206.31;;;7.85
24586;BMP280;12743;52.262;6.172;2023-03-20T16:08:55;100234.00;;;7.94
24586;BMP280;12743;52.262;6.172;2023-03-20T16:11:21;100225.19;;;7.99
24586;BMP280;12743;52.262;6.172;2023-03-20T16:13:48;100220.00;;;7.90
24586;BMP280;12743;52.262;6.172;2023-03-20T16:16:22;100227.50;;;8.00
24586;BMP280;12743;52.262;6.172;2023-03-20T16:18:50;100223.50;;;8.03
24586;BMP280;12743;52.262;6.172;2023-03-20T16:21:20;100220.28;;;7.97
24586;BMP280;12743;52.262;6.172;2023-03-20T16:23:51;100228.28;;;8.01
24586;BMP280;12743;52.262;6.172;2023-03-20T16:26:21;100228.72;;;8.03
24586;BMP280;12743;52.262;6.172;2023-03-20T16:28:49;100237.19;;;8.00
24586;BMP280;12743;52.262;6.172;2023-03-20T16:33:46;100214.69;;;8.07
24586;BMP280;12743;52.262;6.172;2023-03-20T16:36:16;100229.50;;;8.03
24586;BMP280;12743;52.262;6.172;2023-03-20T16:39:07;100237.13;;;8.08
24586;BMP280;12743;52.262;6.172;2023-03-20T16:41:36;100233.50;;;8.01
24586;BMP280;12743;52.262;6.172;2023-03-20T16:44:10;100219.50;;;7.97
24586;BMP280;12743;52.262;6.172;2023-03-20T16:49:50;100224.38;;;8.07
24586;BMP280;12743;52.262;6.172;2023-03-20T16:52:31;100154.91;;;7.68
24586;BMP280;12743;52.262;6.172;2023-03-20T16:54:59;100209.13;;;8.09